createdAt,value
2022-11-03T00:01:12.712Z,101134.13
2022-11-03T00:03:39.685Z,101135.06
2022-11-03T00:06:06.841Z,101133.09
2022-11-03T00:08:39.559Z,101135.00
2022-11-03T00:11:14.005Z,101143.28
2022-11-03T00:13:43.047Z,101143.59
2022-11-03T00:16:12.394Z,101149.22
2022-11-03T00:18:39.876Z,101145.72
2022-11-03T00:21:09.704Z,101145.84
2022-11-03T00:23:39.493Z,101147.06
2022-11-03T00:26:11.283Z,101154.97
2022-11-03T00:28:38.781Z,101156.75
2022-11-03T00:31:14.415Z,101152.03
2022-11-03T00:33:42.836Z,101156.38
2022-11-03T00:36:16.939Z,101151.69
2022-11-03T00:38:44.899Z,101155.06
2022-11-03T00:41:12.742Z,101145.75
2022-11-03T00:43:40.183Z,101148.91
2022-11-03T00:46:08.388Z,101161.47
2022-11-03T00:48:36.669Z,101164.13
2022-11-03T00:51:15.979Z,101167.63
2022-11-03T00:53:47.910Z,101163.97
2022-11-03T00:56:20.354Z,101170.22
2022-11-03T00:58:47.286Z,101167.97
2022-11-03T01:01:19.973Z,101168.41
2022-11-03T01:04:09.319Z,101165.59
2022-11-03T01:06:50.567Z,101163.66
2022-11-03T01:09:22.143Z,101172.63
2022-11-03T01:12:11.928Z,101162.94
2022-11-03T01:14:41.769Z,101169.56
2022-11-03T01:17:14.299Z,101169.53
2022-11-03T01:19:41.845Z,101171.47
2022-11-03T01:22:10.993Z,101175.19
2022-11-03T01:24:40.519Z,101175.13
2022-11-03T01:27:08.751Z,101169.81
2022-11-03T01:29:35.704Z,101177.16
2022-11-03T01:32:02.532Z,101170.25
2022-11-03T01:34:29.390Z,101171.41
2022-11-03T01:36:56.258Z,101176.94
2022-11-03T01:39:23.157Z,101175.81
2022-11-03T01:41:51.726Z,101182.34
2022-11-03T01:44:18.541Z,101185.09
2022-11-03T01:46:59.564Z,101190.28
2022-11-03T01:49:44.816Z,101188.00
2022-11-03T01:52:47.980Z,101195.47
2022-11-03T01:55:20.228Z,101193.25
2022-11-03T01:57:55.843Z,101186.13
2022-11-03T02:00:23.163Z,101197.16
2022-11-03T02:02:50.693Z,101186.38
2022-11-03T02:05:19.076Z,101195.97
2022-11-03T02:08:14.077Z,101192.97
2022-11-03T02:10:41.227Z,101194.38
2022-11-03T02:13:19.710Z,101189.97
2022-11-03T02:15:54.131Z,101195.41
2022-11-03T02:18:26.401Z,101192.88
2022-11-03T02:21:25.299Z,101198.94
2022-11-03T02:24:13.372Z,101201.63
2022-11-03T02:26:42.299Z,101199.19
2022-11-03T02:29:09.184Z,101201.97
2022-11-03T02:31:43.300Z,101205.88
2022-11-03T02:34:16.724Z,101209.13
2022-11-03T02:36:51.538Z,101210.78
2022-11-03T02:39:30.037Z,101211.88
2022-11-03T02:41:59.788Z,101208.13
2022-11-03T02:44:28.636Z,101208.72
2022-11-03T02:47:00.888Z,101225.91
2022-11-03T02:49:28.205Z,101230.44
2022-11-03T02:52:05.691Z,101230.09
2022-11-03T02:54:38.608Z,101227.09
2022-11-03T02:57:21.433Z,101235.34
2022-11-03T03:00:13.221Z,101230.31
2022-11-03T03:02:51.710Z,101225.09
2022-11-03T03:05:21.443Z,101221.81
2022-11-03T03:07:52.549Z,101219.13
2022-11-03T03:10:26.637Z,101220.03
2022-11-03T03:12:57.279Z,101240.06
2022-11-03T03:15:38.079Z,101246.97
2022-11-03T03:18:16.047Z,101245.38
2022-11-03T03:20:59.996Z,101238.91
2022-11-03T03:23:31.521Z,101227.22
2022-11-03T03:26:03.401Z,101240.44
2022-11-03T03:28:39.811Z,101245.66
2022-11-03T03:31:11.847Z,101243.75
2022-11-03T03:33:41.979Z,101249.34
2022-11-03T03:36:15.956Z,101249.44
2022-11-03T03:38:49.279Z,101256.22
2022-11-03T03:41:23.153Z,101266.84
2022-11-03T03:43:57.523Z,101249.38
2022-11-03T03:46:29.450Z,101252.53
2022-11-03T03:48:56.398Z,101248.53
2022-11-03T03:51:26.637Z,101244.47
2022-11-03T03:53:55.452Z,101234.41
2022-11-03T03:56:33.013Z,101230.22
2022-11-03T03:58:59.914Z,101245.09
2022-11-03T04:01:27.056Z,101238.00
2022-11-03T04:03:54.162Z,101240.97
2022-11-03T04:06:21.095Z,101235.06
2022-11-03T04:08:47.947Z,101239.91
2022-11-03T04:11:33.521Z,101253.69
2022-11-03T04:14:18.603Z,101255.59
2022-11-03T04:17:04.013Z,101249.94
2022-11-03T04:19:49.641Z,101253.16
2022-11-03T04:22:16.446Z,101253.38
2022-11-03T04:24:51.204Z,101259.19
2022-11-03T04:27:41.367Z,101260.34
2022-11-03T04:30:19.305Z,101254.66
2022-11-03T04:32:51.211Z,101260.91
2022-11-03T04:35:24.618Z,101248.06
2022-11-03T04:38:14.727Z,101265.22
2022-11-03T04:40:49.128Z,101275.03
2022-11-03T04:43:20.668Z,101272.53
2022-11-03T04:45:48.581Z,101273.84
2022-11-03T04:48:27.157Z,101275.88
2022-11-03T04:50:57.332Z,101274.34
2022-11-03T04:53:28.268Z,101283.78
2022-11-03T04:55:55.341Z,101284.69
2022-11-03T04:58:24.127Z,101293.00
2022-11-03T05:00:57.574Z,101301.56
2022-11-03T05:03:27.789Z,101298.25
2022-11-03T05:05:54.681Z,101298.72
2022-11-03T05:08:22.254Z,101301.22
2022-11-03T05:10:49.784Z,101309.59
2022-11-03T05:13:28.999Z,101317.59
2022-11-03T05:16:03.235Z,101319.28
2022-11-03T05:18:33.971Z,101319.47
2022-11-03T05:21:06.855Z,101330.56
2022-11-03T05:23:40.646Z,101333.59
2022-11-03T05:26:43.303Z,101333.09
2022-11-03T05:29:10.630Z,101339.91
2022-11-03T05:31:40.934Z,101343.50
2022-11-03T05:34:32.706Z,101355.94
2022-11-03T05:37:09.328Z,101356.88
2022-11-03T05:39:37.560Z,101351.31
2022-11-03T05:42:36.598Z,101351.44
2022-11-03T05:45:15.611Z,101355.47
2022-11-03T05:47:42.822Z,101360.13
2022-11-03T05:50:25.287Z,101364.94
2022-11-03T05:53:23.261Z,101364.28
2022-11-03T05:55:50.156Z,101356.25
2022-11-03T05:58:25.668Z,101359.47
2022-11-03T06:00:53.082Z,101359.22
2022-11-03T06:03:27.708Z,101366.81
2022-11-03T06:05:55.905Z,101366.84
2022-11-03T06:08:27.912Z,101381.09
2022-11-03T06:11:00.200Z,101377.53
2022-11-03T06:13:34.277Z,101385.50
2022-11-03T06:16:17.826Z,101395.13
2022-11-03T06:18:44.815Z,101387.47
2022-11-03T06:21:16.474Z,101392.78
2022-11-03T06:23:43.538Z,101391.31
2022-11-03T06:26:25.533Z,101387.31
2022-11-03T06:28:53.187Z,101383.47
2022-11-03T06:31:27.637Z,101391.22
2022-11-03T06:33:57.440Z,101399.69
2022-11-03T06:36:32.663Z,101392.84
2022-11-03T06:39:09.814Z,101398.47
2022-11-03T06:41:37.258Z,101398.38
2022-11-03T06:44:20.510Z,101402.41
2022-11-03T06:46:47.482Z,101403.72
2022-11-03T06:49:35.989Z,101410.03
2022-11-03T06:52:18.098Z,101411.09
2022-11-03T06:54:48.660Z,101397.72
2022-11-03T06:57:18.807Z,101399.00
2022-11-03T06:59:46.124Z,101404.94
2022-11-03T07:02:41.808Z,101397.16
2022-11-03T07:05:22.623Z,101398.84
2022-11-03T07:07:51.901Z,101401.53
2022-11-03T07:10:18.756Z,101401.16
2022-11-03T07:12:45.865Z,101411.47
2022-11-03T07:15:35.033Z,101402.69
2022-11-03T07:18:03.848Z,101408.59
2022-11-03T07:20:30.911Z,101418.06
2022-11-03T07:23:01.481Z,101414.38
2022-11-03T07:25:28.409Z,101409.63
2022-11-03T07:27:57.623Z,101411.72
2022-11-03T07:30:30.167Z,101409.66
2022-11-03T07:33:21.137Z,101411.72
2022-11-03T07:38:35.563Z,101418.56
2022-11-03T07:41:02.558Z,101412.09
2022-11-03T07:43:32.029Z,101406.41
2022-11-03T07:46:01.996Z,101407.28
2022-11-03T07:48:33.790Z,101415.09
2022-11-03T07:51:06.229Z,101405.94
2022-11-03T07:53:43.930Z,101407.69
2022-11-03T07:56:19.284Z,101411.97
2022-11-03T07:58:48.052Z,101408.47
2022-11-03T08:01:36.659Z,101411.81
2022-11-03T08:04:31.376Z,101414.06
2022-11-03T08:06:58.377Z,101416.03
2022-11-03T08:09:25.486Z,101414.00
2022-11-03T08:11:52.435Z,101408.84
2022-11-03T08:14:19.332Z,101414.75
2022-11-03T08:16:46.471Z,101410.91
2022-11-03T08:19:13.421Z,101414.09
2022-11-03T08:21:40.258Z,101417.47
2022-11-03T08:24:07.335Z,101422.19
2022-11-03T08:26:34.271Z,101412.34
2022-11-03T08:29:01.171Z,101421.50
2022-11-03T08:31:28.139Z,101415.41
2022-11-03T08:33:55.105Z,101416.38
2022-11-03T08:36:22.066Z,101410.97
2022-11-03T08:38:49.013Z,101401.72
2022-11-03T08:41:15.914Z,101405.78
2022-11-03T08:43:42.870Z,101393.31
2022-11-03T08:46:17.034Z,101398.00
2022-11-03T08:48:45.915Z,101394.34
2022-11-03T08:51:14.778Z,101390.28
2022-11-03T08:53:42.953Z,101396.38
2022-11-03T08:56:12.973Z,101395.56
2022-11-03T08:58:41.302Z,101400.72
2022-11-03T09:01:10.163Z,101394.94
2022-11-03T09:03:37.117Z,101390.66
2022-11-03T09:06:04.263Z,101383.56
2022-11-03T09:11:18.338Z,101382.50
2022-11-03T09:13:45.172Z,101383.09
2022-11-03T09:16:12.231Z,101374.75
2022-11-03T09:18:39.118Z,101380.72
2022-11-03T09:21:06.431Z,101375.78
2022-11-03T09:23:33.436Z,101383.50
2022-11-03T09:26:00.270Z,101377.66
2022-11-03T09:28:27.109Z,101367.16
2022-11-03T09:30:54.871Z,101368.66
2022-11-03T09:33:21.883Z,101358.69
2022-11-03T09:35:49.564Z,101369.44
2022-11-03T09:38:17.326Z,101364.81
2022-11-03T09:40:44.444Z,101360.88
2022-11-03T09:43:11.920Z,101358.47
2022-11-03T09:45:39.594Z,101351.31
2022-11-03T09:48:10.756Z,101349.44
2022-11-03T09:50:38.276Z,101345.13
2022-11-03T09:53:05.948Z,101351.31
2022-11-03T09:55:33.959Z,101344.41
2022-11-03T09:58:10.747Z,101342.59
2022-11-03T10:00:38.861Z,101333.50
2022-11-03T10:03:07.068Z,101339.97
2022-11-03T10:05:35.430Z,101338.44
2022-11-03T10:08:12.451Z,101334.19
2022-11-03T10:10:41.022Z,101335.84
2022-11-03T10:13:09.853Z,101321.66
2022-11-03T10:15:37.045Z,101327.88
2022-11-03T10:18:03.982Z,101328.22
2022-11-03T10:20:31.016Z,101325.84
2022-11-03T10:22:57.955Z,101334.47
2022-11-03T10:25:30.908Z,101321.88
2022-11-03T10:28:18.527Z,101317.63
2022-11-03T10:31:13.023Z,101312.50
2022-11-03T10:34:00.692Z,101318.88
2022-11-03T10:36:32.272Z,101324.06
2022-11-03T10:39:02.439Z,101322.25
2022-11-03T10:41:32.323Z,101307.72
2022-11-03T10:44:08.702Z,101317.59
2022-11-03T10:46:49.630Z,101311.06
2022-11-03T10:49:19.794Z,101304.84
2022-11-03T10:51:52.758Z,101304.13
2022-11-03T10:54:24.919Z,101300.59
2022-11-03T10:56:52.771Z,101286.16
2022-11-03T10:59:33.043Z,101292.59
2022-11-03T11:02:01.101Z,101278.88
2022-11-03T11:04:28.315Z,101273.91
2022-11-03T11:06:55.401Z,101276.09
2022-11-03T11:09:28.148Z,101273.13
2022-11-03T11:12:15.890Z,101272.22
2022-11-03T11:15:30.520Z,101271.78
2022-11-03T11:17:57.443Z,101276.84
2022-11-03T11:20:36.479Z,101267.25
2022-11-03T11:23:28.118Z,101262.22
2022-11-03T11:26:26.303Z,101265.06
2022-11-03T11:29:20.555Z,101255.25
2022-11-03T11:31:47.481Z,101262.91
2022-11-03T11:34:18.326Z,101260.22
2022-11-03T11:36:49.953Z,101249.38
2022-11-03T11:39:23.050Z,101261.66
2022-11-03T11:42:21.530Z,101259.84
2022-11-03T11:44:51.612Z,101258.75
2022-11-03T11:47:26.639Z,101248.56
2022-11-03T11:50:11.664Z,101247.72
2022-11-03T11:52:44.856Z,101249.25
2022-11-03T11:55:29.544Z,101256.22
2022-11-03T11:57:58.286Z,101246.00
2022-11-03T12:00:29.052Z,101242.81
2022-11-03T12:02:57.239Z,101237.28
2022-11-03T12:05:27.981Z,101239.66
2022-11-03T12:07:55.872Z,101240.88
2022-11-03T12:10:28.501Z,101243.16
2022-11-03T12:12:56.774Z,101242.69
2022-11-03T12:15:55.399Z,101241.75
2022-11-03T12:18:29.001Z,101234.72
2022-11-03T12:20:55.953Z,101239.19
2022-11-03T12:23:39.983Z,101234.78
2022-11-03T12:26:15.871Z,101238.75
2022-11-03T12:28:43.489Z,101231.81
2022-11-03T12:31:10.512Z,101235.72
2022-11-03T12:33:37.449Z,101227.75
2022-11-03T12:36:04.485Z,101238.28
2022-11-03T12:38:31.409Z,101234.53
2022-11-03T12:40:58.363Z,101229.63
2022-11-03T12:43:25.231Z,101228.81
2022-11-03T12:45:52.431Z,101225.03
2022-11-03T12:48:19.794Z,101228.63
2022-11-03T12:50:46.785Z,101223.56
2022-11-03T12:53:13.649Z,101225.78
2022-11-03T12:55:43.662Z,101228.38
2022-11-03T12:58:11.756Z,101233.44
2022-11-03T13:00:38.755Z,101234.13
2022-11-03T13:03:05.921Z,101230.97
2022-11-03T13:05:33.100Z,101239.91
2022-11-03T13:07:59.920Z,101227.28
2022-11-03T13:10:26.808Z,101225.81
2022-11-03T13:12:53.878Z,101223.81
2022-11-03T13:15:21.198Z,101229.78
2022-11-03T13:20:36.080Z,101241.31
2022-11-03T13:23:04.702Z,101225.59
2022-11-03T13:25:31.912Z,101232.56
2022-11-03T13:27:58.993Z,101228.53
2022-11-03T13:30:27.178Z,101230.63
2022-11-03T13:32:54.353Z,101232.38
2022-11-03T13:35:25.188Z,101231.59
2022-11-03T13:37:52.198Z,101230.94
2022-11-03T13:40:50.390Z,101229.09
2022-11-03T13:43:07.537Z,101229.16
2022-11-03T13:45:34.960Z,101240.06
2022-11-03T13:50:52.115Z,101234.81
2022-11-03T13:56:08.816Z,101240.50
2022-11-03T14:01:24.773Z,101250.88
2022-11-03T14:06:39.197Z,101247.81
2022-11-03T14:09:06.161Z,101250.34
2022-11-03T14:11:51.547Z,101248.25
2022-11-03T14:14:18.524Z,101246.53
2022-11-03T14:16:45.495Z,101242.75
2022-11-03T14:19:12.492Z,101243.06
2022-11-03T14:21:42.765Z,101241.19
2022-11-03T14:24:09.871Z,101244.50
2022-11-03T14:26:44.456Z,101246.63
2022-11-03T14:29:11.569Z,101246.75
2022-11-03T14:31:38.602Z,101250.44
2022-11-03T14:34:05.553Z,101242.19
2022-11-03T14:36:32.515Z,101241.69
2022-11-03T14:38:59.718Z,101235.66
2022-11-03T14:41:45.388Z,101236.41
2022-11-03T14:44:12.701Z,101237.75
2022-11-03T14:46:39.649Z,101231.00
2022-11-03T14:49:06.534Z,101234.25
2022-11-03T14:51:33.361Z,101237.88
2022-11-03T14:54:00.289Z,101231.06
2022-11-03T14:56:27.498Z,101232.81
2022-11-03T14:58:55.017Z,101230.47
2022-11-03T15:01:21.964Z,101234.06
2022-11-03T15:03:48.924Z,101246.75
2022-11-03T15:06:15.828Z,101245.38
2022-11-03T15:08:42.946Z,101237.25
2022-11-03T15:11:10.653Z,101240.91
2022-11-03T15:13:43.980Z,101235.88
2022-11-03T15:16:14.127Z,101245.63
2022-11-03T15:18:41.739Z,101241.47
2022-11-03T15:21:08.642Z,101240.19
2022-11-03T15:26:22.534Z,101242.47
2022-11-03T15:28:49.515Z,101243.44
2022-11-03T15:31:16.452Z,101244.09
2022-11-03T15:33:43.359Z,101250.28
2022-11-03T15:36:10.439Z,101249.97
2022-11-03T15:38:37.405Z,101247.16
2022-11-03T15:41:16.635Z,101248.22
2022-11-03T15:43:45.171Z,101251.53
2022-11-03T15:46:13.982Z,101252.88
2022-11-03T15:48:41.250Z,101249.97
2022-11-03T15:51:08.665Z,101254.00
2022-11-03T15:53:35.707Z,101258.63
2022-11-03T15:56:03.006Z,101260.59
2022-11-03T15:58:33.848Z,101256.69
2022-11-03T16:01:04.214Z,101254.66
2022-11-03T16:03:32.254Z,101255.19
2022-11-03T16:05:59.478Z,101263.31
2022-11-03T16:08:26.485Z,101263.28
2022-11-03T16:10:57.703Z,101266.16
2022-11-03T16:13:25.505Z,101265.56
2022-11-03T16:15:54.713Z,101265.16
2022-11-03T16:18:22.033Z,101261.00
2022-11-03T16:20:49.031Z,101267.50
2022-11-03T16:23:15.859Z,101261.72
2022-11-03T16:25:43.116Z,101271.53
2022-11-03T16:28:10.549Z,101274.06
2022-11-03T16:30:38.801Z,101272.41
2022-11-03T16:33:06.050Z,101275.09
2022-11-03T16:35:33.353Z,101270.81
2022-11-03T16:38:00.401Z,101282.50
2022-11-03T16:40:27.649Z,101279.50
2022-11-03T16:42:55.241Z,101269.28
2022-11-03T16:45:25.962Z,101269.25
2022-11-03T16:47:53.008Z,101268.94
2022-11-03T16:50:20.765Z,101272.22
2022-11-03T16:52:49.377Z,101270.63
2022-11-03T16:55:18.149Z,101273.88
2022-11-03T16:57:46.269Z,101269.53
2022-11-03T17:00:19.674Z,101275.09
2022-11-03T17:02:47.895Z,101266.22
2022-11-03T17:05:19.023Z,101278.56
2022-11-03T17:07:52.856Z,101271.63
2022-11-03T17:10:21.818Z,101272.03
2022-11-03T17:12:49.932Z,101273.28
2022-11-03T17:15:20.237Z,101266.56
2022-11-03T17:17:47.699Z,101273.50
2022-11-03T17:20:15.613Z,101275.19
2022-11-03T17:22:42.741Z,101276.66
2022-11-03T17:25:11.761Z,101274.06
2022-11-03T17:27:45.592Z,101275.88
2022-11-03T17:30:21.569Z,101264.66
2022-11-03T17:32:51.427Z,101264.75
2022-11-03T17:35:24.576Z,101261.13
2022-11-03T17:37:52.788Z,101263.75
2022-11-03T17:40:29.396Z,101263.06
2022-11-03T17:42:56.904Z,101259.00
2022-11-03T17:45:25.994Z,101253.66
2022-11-03T17:47:54.060Z,101251.00
2022-11-03T17:50:23.869Z,101249.72
2022-11-03T17:52:52.606Z,101243.44
2022-11-03T17:55:29.822Z,101247.25
2022-11-03T17:58:00.636Z,101252.63
2022-11-03T18:00:28.431Z,101251.59
2022-11-03T18:02:56.517Z,101257.97
2022-11-03T18:05:27.266Z,101247.31
2022-11-03T18:07:55.412Z,101244.97
2022-11-03T18:10:28.859Z,101239.88
2022-11-03T18:13:18.221Z,101241.59
2022-11-03T18:15:47.733Z,101236.00
2022-11-03T18:18:18.873Z,101239.44
2022-11-03T18:20:53.083Z,101236.63
2022-11-03T18:23:26.001Z,101228.25
2022-11-03T18:25:53.717Z,101231.78
2022-11-03T18:28:20.759Z,101224.72
2022-11-03T18:30:50.837Z,101225.34
2022-11-03T18:33:25.885Z,101219.00
2022-11-03T18:35:53.898Z,101221.66
2022-11-03T18:38:24.026Z,101216.59
2022-11-03T18:40:51.640Z,101215.78
2022-11-03T18:43:23.397Z,101209.38
2022-11-03T18:45:51.465Z,101201.25
2022-11-03T18:48:21.952Z,101202.88
2022-11-03T18:50:51.388Z,101202.16
2022-11-03T18:53:21.602Z,101203.16
2022-11-03T18:55:57.855Z,101214.38
2022-11-03T18:58:25.744Z,101208.22
2022-11-03T19:00:53.406Z,101205.59
2022-11-03T19:03:22.801Z,101211.69
2022-11-03T19:05:51.806Z,101211.72
2022-11-03T19:08:30.572Z,101218.78
2022-11-03T19:11:03.831Z,101219.28
2022-11-03T19:13:37.814Z,101213.47
2022-11-03T19:16:14.815Z,101218.97
2022-11-03T19:18:43.038Z,101218.06
2022-11-03T19:21:21.808Z,101226.03
2022-11-03T19:23:49.671Z,101232.44
2022-11-03T19:26:24.961Z,101221.03
2022-11-03T19:28:56.358Z,101231.63
2022-11-03T19:31:34.060Z,101228.19
2022-11-03T19:34:01.928Z,101222.88
2022-11-03T19:36:31.466Z,101228.47
2022-11-03T19:38:59.527Z,101226.53
2022-11-03T19:41:45.397Z,101228.03
2022-11-03T19:44:13.837Z,101228.28
2022-11-03T19:46:42.188Z,101224.41
2022-11-03T19:49:15.138Z,101230.41
2022-11-03T19:51:42.266Z,101223.53
2022-11-03T19:54:18.271Z,101224.69
2022-11-03T19:56:48.347Z,101214.09
2022-11-03T19:59:16.832Z,101221.75
2022-11-03T20:01:44.038Z,101224.13
2022-11-03T20:04:11.097Z,101214.47
2022-11-03T20:06:39.035Z,101218.06
2022-11-03T20:09:08.708Z,101223.31
2022-11-03T20:11:36.376Z,101218.25
2022-11-03T20:14:04.339Z,101215.09
2022-11-03T20:16:31.783Z,101209.59
2022-11-03T20:18:58.689Z,101209.50
2022-11-03T20:21:31.476Z,101212.84
2022-11-03T20:24:01.214Z,101208.41
2022-11-03T20:26:28.793Z,101215.44
2022-11-03T20:28:58.413Z,101211.78
2022-11-03T20:31:25.637Z,101209.16
2022-11-03T20:33:52.558Z,101209.03
2022-11-03T20:36:20.969Z,101216.19
2022-11-03T20:38:52.743Z,101207.31
2022-11-03T20:41:19.877Z,101207.22
2022-11-03T20:43:47.776Z,101204.75
2022-11-03T20:46:31.405Z,101197.94
2022-11-03T20:48:59.228Z,101196.16
2022-11-03T20:51:31.917Z,101196.19
2022-11-03T20:53:59.619Z,101195.25
2022-11-03T20:56:28.464Z,101202.84
2022-11-03T20:58:56.092Z,101205.50
2022-11-03T21:01:33.377Z,101201.84
2022-11-03T21:04:01.774Z,101200.00
2022-11-03T21:06:30.818Z,101200.19
2022-11-03T21:08:59.048Z,101203.88
2022-11-03T21:11:29.300Z,101201.94
2022-11-03T21:14:11.748Z,101187.50
2022-11-03T21:16:57.104Z,101195.00
2022-11-03T21:19:45.297Z,101185.38
2022-11-03T21:22:30.852Z,101186.13
2022-11-03T21:25:01.656Z,101179.44
2022-11-03T21:27:28.694Z,101177.34
2022-11-03T21:29:59.277Z,101174.53
2022-11-03T21:32:26.868Z,101168.91
2022-11-03T21:34:53.785Z,101178.38
2022-11-03T21:37:20.808Z,101181.00
2022-11-03T21:39:47.761Z,101177.38
2022-11-03T21:42:34.478Z,101173.00
2022-11-03T21:45:01.648Z,101170.19
2022-11-03T21:47:28.802Z,101170.59
2022-11-03T21:49:55.813Z,101169.09
2022-11-03T21:52:32.098Z,101171.09
2022-11-03T21:55:03.325Z,101164.34
2022-11-03T21:57:31.117Z,101161.78
2022-11-03T22:00:00.937Z,101169.69
2022-11-03T22:02:30.125Z,101163.38
2022-11-03T22:04:57.927Z,101164.09
2022-11-03T22:07:25.161Z,101159.19
2022-11-03T22:09:52.288Z,101156.88
2022-11-03T22:12:19.182Z,101158.09
2022-11-03T22:15:04.589Z,101150.25
2022-11-03T22:17:31.681Z,101147.63
2022-11-03T22:20:17.155Z,101149.28
2022-11-03T22:23:02.847Z,101143.31
2022-11-03T22:25:47.963Z,101141.38
2022-11-03T22:28:15.412Z,101138.41
2022-11-03T22:31:00.926Z,101142.97
2022-11-03T22:33:27.861Z,101137.59
2022-11-03T22:36:21.553Z,101137.53
2022-11-03T22:39:07.277Z,101138.66
2022-11-03T22:41:52.915Z,101141.63
2022-11-03T22:44:42.680Z,101137.13
2022-11-03T22:47:11.226Z,101137.03
2022-11-03T22:49:39.105Z,101125.38
2022-11-03T22:52:05.978Z,101129.03
2022-11-03T22:54:32.980Z,101132.63
2022-11-03T22:56:59.886Z,101134.41
2022-11-03T22:59:26.763Z,101128.38
2022-11-03T23:01:54.202Z,101131.81
2022-11-03T23:04:21.243Z,101121.44
2022-11-03T23:06:48.254Z,101123.44
2022-11-03T23:09:15.180Z,101115.53
2022-11-03T23:11:42.218Z,101118.81
2022-11-03T23:14:11.224Z,101117.88
2022-11-03T23:16:43.285Z,101115.31
2022-11-03T23:19:30.092Z,101118.03
2022-11-03T23:21:57.516Z,101111.00
2022-11-03T23:24:45.324Z,101113.38
2022-11-03T23:27:12.860Z,101110.13
2022-11-03T23:29:40.056Z,101116.41
2022-11-03T23:32:07.218Z,101114.94
2022-11-03T23:34:35.327Z,101116.66
2022-11-03T23:37:03.129Z,101111.34
2022-11-03T23:39:30.049Z,101112.28
2022-11-03T23:41:57.026Z,101111.56
2022-11-03T23:44:23.983Z,101107.16
2022-11-03T23:47:09.393Z,101109.81
2022-11-03T23:49:36.424Z,101106.19
2022-11-03T23:52:03.352Z,101107.09
2022-11-03T23:54:30.610Z,101102.72
2022-11-03T23:57:16.395Z,101100.13
2022-11-03T23:59:46.363Z,101100.06
